sensor_id;sensor_type;location;lat;lon;timestamp;P1;durP1;ratioP1;P2;durP2;ratioP2
7045;SDS011;3564;53.326;10.356;2022-08-14T00:00:44;3.93;;;3.03;;
7045;SDS011;3564;53.326;10.356;2022-08-14T00:03:17;3.10;;;2.83;;
7045;SDS011;3564;53.326;10.356;2022-08-14T00:05:47;2.90;;;2.70;;
7045;SDS011;3564;53.326;10.356;2022-08-14T00:08:13;3.90;;;3.20;;
7045;SDS011;3564;53.326;10.356;2022-08-14T00:10:39;3.23;;;2.90;;
7045;SDS011;3564;53.326;10.356;2022-08-14T00:13:06;6.37;;;3.30;;
7045;SDS011;3564;53.326;10.356;2022-08-14T00:15:33;4.60;;;3.10;;
7045;SDS011;3564;53.326;10.356;2022-08-14T00:18:02;3.33;;;2.80;;
7045;SDS011;3564;53.326;10.356;2022-08-14T00:20:31;3.30;;;2.83;;
7045;SDS011;3564;53.326;10.356;2022-08-14T00:22:59;2.77;;;2.57;;
7045;SDS011;3564;53.326;10.356;2022-08-14T00:25:25;3.30;;;2.80;;
7045;SDS011;3564;53.326;10.356;2022-08-14T00:27:51;3.90;;;2.80;;
7045;SDS011;3564;53.326;10.356;2022-08-14T00:30:17;4.80;;;2.93;;
7045;SDS011;3564;53.326;10.356;2022-08-14T00:32:43;3.47;;;2.60;;
7045;SDS011;3564;53.326;10.356;2022-08-14T00:35:09;3.57;;;3.07;;
7045;SDS011;3564;53.326;10.356;2022-08-14T00:37:40;3.10;;;2.80;;
7045;SDS011;3564;53.326;10.356;2022-08-14T00:40:08;3.93;;;2.60;;
7045;SDS011;3564;53.326;10.356;2022-08-14T00:42:35;3.17;;;2.87;;
7045;SDS011;3564;53.326;10.356;2022-08-14T00:45:02;3.50;;;2.87;;
7045;SDS011;3564;53.326;10.356;2022-08-14T00:47:29;3.83;;;2.90;;
7045;SDS011;3564;53.326;10.356;2022-08-14T00:49:55;3.30;;;2.70;;
7045;SDS011;3564;53.326;10.356;2022-08-14T00:52:20;2.60;;;2.40;;
7045;SDS011;3564;53.326;10.356;2022-08-14T00:54:47;2.70;;;2.50;;
7045;SDS011;3564;53.326;10.356;2022-08-14T00:57:17;2.90;;;2.70;;
7045;SDS011;3564;53.326;10.356;2022-08-14T00:59:44;3.50;;;2.30;;
7045;SDS011;3564;53.326;10.356;2022-08-14T01:02:09;4.57;;;2.80;;
7045;SDS011;3564;53.326;10.356;2022-08-14T01:04:39;4.83;;;2.83;;
7045;SDS011;3564;53.326;10.356;2022-08-14T01:07:08;4.13;;;2.40;;
7045;SDS011;3564;53.326;10.356;2022-08-14T01:09:35;3.10;;;2.47;;
7045;SDS011;3564;53.326;10.356;2022-08-14T01:12:02;4.40;;;2.70;;
7045;SDS011;3564;53.326;10.356;2022-08-14T01:14:30;2.77;;;2.57;;
7045;SDS011;3564;53.326;10.356;2022-08-14T01:16:56;6.20;;;2.80;;
7045;SDS011;3564;53.326;10.356;2022-08-14T01:19:23;3.57;;;2.53;;
7045;SDS011;3564;53.326;10.356;2022-08-14T01:22:09;2.30;;;2.10;;
7045;SDS011;3564;53.326;10.356;2022-08-14T01:24:35;3.40;;;2.80;;
7045;SDS011;3564;53.326;10.356;2022-08-14T01:27:01;3.67;;;3.37;;
7045;SDS011;3564;53.326;10.356;2022-08-14T01:29:29;3.50;;;3.10;;
7045;SDS011;3564;53.326;10.356;2022-08-14T01:32:02;7.00;;;2.60;;
7045;SDS011;3564;53.326;10.356;2022-08-14T01:34:30;3.30;;;3.00;;
7045;SDS011;3564;53.326;10.356;2022-08-14T01:36:57;4.23;;;2.70;;
7045;SDS011;3564;53.326;10.356;2022-08-14T01:39:23;3.70;;;2.63;;
7045;SDS011;3564;53.326;10.356;2022-08-14T01:41:50;5.27;;;2.60;;
7045;SDS011;3564;53.326;10.356;2022-08-14T01:44:25;5.70;;;3.00;;
7045;SDS011;3564;53.326;10.356;2022-08-14T01:46:55;2.40;;;2.20;;
7045;SDS011;3564;53.326;10.356;2022-08-14T01:49:22;5.30;;;2.73;;
7045;SDS011;3564;53.326;10.356;2022-08-14T01:51:49;3.17;;;2.70;;
7045;SDS011;3564;53.326;10.356;2022-08-14T01:54:20;3.60;;;3.03;;
7045;SDS011;3564;53.326;10.356;2022-08-14T01:56:51;3.53;;;2.90;;
7045;SDS011;3564;53.326;10.356;2022-08-14T01:59:30;3.40;;;2.73;;
7045;SDS011;3564;53.326;10.356;2022-08-14T02:01:58;3.53;;;2.77;;
7045;SDS011;3564;53.326;10.356;2022-08-14T02:04:29;3.67;;;2.70;;
7045;SDS011;3564;53.326;10.356;2022-08-14T02:06:56;3.40;;;3.10;;
7045;SDS011;3564;53.326;10.356;2022-08-14T02:09:22;2.90;;;2.70;;
7045;SDS011;3564;53.326;10.356;2022-08-14T02:11:48;4.07;;;2.83;;
7045;SDS011;3564;53.326;10.356;2022-08-14T02:14:16;3.87;;;2.80;;
7045;SDS011;3564;53.326;10.356;2022-08-14T02:16:43;3.30;;;2.80;;
7045;SDS011;3564;53.326;10.356;2022-08-14T02:19:15;3.40;;;3.10;;
7045;SDS011;3564;53.326;10.356;2022-08-14T02:21:44;3.27;;;2.97;;
7045;SDS011;3564;53.326;10.356;2022-08-14T02:24:12;5.93;;;3.27;;
7045;SDS011;3564;53.326;10.356;2022-08-14T02:26:40;3.37;;;2.70;;
7045;SDS011;3564;53.326;10.356;2022-08-14T02:29:14;2.70;;;2.50;;
7045;SDS011;3564;53.326;10.356;2022-08-14T02:31:47;3.33;;;2.90;;
7045;SDS011;3564;53.326;10.356;2022-08-14T02:34:20;3.30;;;2.90;;
7045;SDS011;3564;53.326;10.356;2022-08-14T02:36:51;4.80;;;3.07;;
7045;SDS011;3564;53.326;10.356;2022-08-14T02:39:18;4.37;;;2.87;;
7045;SDS011;3564;53.326;10.356;2022-08-14T02:41:44;3.00;;;2.40;;
7045;SDS011;3564;53.326;10.356;2022-08-14T02:44:16;5.33;;;3.00;;
7045;SDS011;3564;53.326;10.356;2022-08-14T02:46:47;5.07;;;3.00;;
7045;SDS011;3564;53.326;10.356;2022-08-14T02:49:14;4.67;;;2.80;;
7045;SDS011;3564;53.326;10.356;2022-08-14T02:51:39;5.33;;;2.90;;
7045;SDS011;3564;53.326;10.356;2022-08-14T02:54:07;3.00;;;2.80;;
7045;SDS011;3564;53.326;10.356;2022-08-14T02:56:33;3.73;;;2.80;;
7045;SDS011;3564;53.326;10.356;2022-08-14T02:59:03;5.33;;;3.00;;
7045;SDS011;3564;53.326;10.356;2022-08-14T03:01:30;3.63;;;3.07;;
7045;SDS011;3564;53.326;10.356;2022-08-14T03:03:58;3.53;;;3.23;;
7045;SDS011;3564;53.326;10.356;2022-08-14T03:06:23;3.57;;;3.27;;
7045;SDS011;3564;53.326;10.356;2022-08-14T03:08:50;7.13;;;3.60;;
7045;SDS011;3564;53.326;10.356;2022-08-14T03:11:17;3.67;;;2.93;;
7045;SDS011;3564;53.326;10.356;2022-08-14T03:13:45;3.70;;;3.00;;
7045;SDS011;3564;53.326;10.356;2022-08-14T03:16:16;4.40;;;2.83;;
7045;SDS011;3564;53.326;10.356;2022-08-14T03:18:44;4.57;;;2.83;;
7045;SDS011;3564;53.326;10.356;2022-08-14T03:21:12;5.17;;;3.00;;
7045;SDS011;3564;53.326;10.356;2022-08-14T03:23:40;3.93;;;2.87;;
7045;SDS011;3564;53.326;10.356;2022-08-14T03:26:08;4.93;;;3.03;;
7045;SDS011;3564;53.326;10.356;2022-08-14T03:28:34;2.67;;;2.47;;
7045;SDS011;3564;53.326;10.356;2022-08-14T03:31:06;3.40;;;3.10;;
7045;SDS011;3564;53.326;10.356;2022-08-14T03:33:33;3.27;;;3.00;;
7045;SDS011;3564;53.326;10.356;2022-08-14T03:36:05;5.13;;;2.80;;
7045;SDS011;3564;53.326;10.356;2022-08-14T03:38:36;3.27;;;2.97;;
7045;SDS011;3564;53.326;10.356;2022-08-14T03:41:07;3.47;;;2.87;;
7045;SDS011;3564;53.326;10.356;2022-08-14T03:43:40;3.00;;;2.67;;
7045;SDS011;3564;53.326;10.356;2022-08-14T03:46:07;3.70;;;2.83;;
7045;SDS011;3564;53.326;10.356;2022-08-14T03:48:37;3.17;;;2.97;;
7045;SDS011;3564;53.326;10.356;2022-08-14T03:51:07;3.50;;;3.20;;
7045;SDS011;3564;53.326;10.356;2022-08-14T03:53:38;6.07;;;3.70;;
7045;SDS011;3564;53.326;10.356;2022-08-14T03:56:10;3.30;;;2.90;;
7045;SDS011;3564;53.326;10.356;2022-08-14T03:58:39;4.03;;;3.17;;
7045;SDS011;3564;53.326;10.356;2022-08-14T04:01:06;3.40;;;2.97;;
7045;SDS011;3564;53.326;10.356;2022-08-14T04:03:33;5.83;;;3.73;;
7045;SDS011;3564;53.326;10.356;2022-08-14T04:05:59;4.33;;;3.03;;
7045;SDS011;3564;53.326;10.356;2022-08-14T04:08:24;5.70;;;3.23;;
7045;SDS011;3564;53.326;10.356;2022-08-14T04:10:50;3.77;;;3.00;;
7045;SDS011;3564;53.326;10.356;2022-08-14T04:13:15;3.80;;;3.17;;
7045;SDS011;3564;53.326;10.356;2022-08-14T04:15:45;4.27;;;2.97;;
7045;SDS011;3564;53.326;10.356;2022-08-14T04:18:12;3.47;;;3.03;;
7045;SDS011;3564;53.326;10.356;2022-08-14T04:20:39;4.07;;;2.97;;
7045;SDS011;3564;53.326;10.356;2022-08-14T04:23:06;6.43;;;3.20;;
7045;SDS011;3564;53.326;10.356;2022-08-14T04:25:33;5.83;;;3.37;;
7045;SDS011;3564;53.326;10.356;2022-08-14T04:28:00;7.00;;;3.80;;
7045;SDS011;3564;53.326;10.356;2022-08-14T04:30:30;3.77;;;3.20;;
7045;SDS011;3564;53.326;10.356;2022-08-14T04:32:57;6.20;;;3.50;;
7045;SDS011;3564;53.326;10.356;2022-08-14T04:35:23;3.43;;;3.17;;
7045;SDS011;3564;53.326;10.356;2022-08-14T04:37:48;3.57;;;3.27;;
7045;SDS011;3564;53.326;10.356;2022-08-14T04:40:33;4.50;;;3.20;;
7045;SDS011;3564;53.326;10.356;2022-08-14T04:43:17;3.50;;;3.20;;
7045;SDS011;3564;53.326;10.356;2022-08-14T04:46:02;3.90;;;3.43;;
7045;SDS011;3564;53.326;10.356;2022-08-14T04:48:28;6.67;;;3.50;;
7045;SDS011;3564;53.326;10.356;2022-08-14T04:50:54;6.73;;;3.40;;
7045;SDS011;3564;53.326;10.356;2022-08-14T04:53:24;7.20;;;3.00;;
7045;SDS011;3564;53.326;10.356;2022-08-14T04:55:51;3.60;;;3.30;;
7045;SDS011;3564;53.326;10.356;2022-08-14T04:58:18;5.73;;;3.37;;
7045;SDS011;3564;53.326;10.356;2022-08-14T05:00:47;9.80;;;3.90;;
7045;SDS011;3564;53.326;10.356;2022-08-14T05:03:21;5.87;;;3.20;;
7045;SDS011;3564;53.326;10.356;2022-08-14T05:05:55;3.63;;;3.23;;
7045;SDS011;3564;53.326;10.356;2022-08-14T05:08:23;4.97;;;3.60;;
7045;SDS011;3564;53.326;10.356;2022-08-14T05:10:50;3.87;;;3.40;;
7045;SDS011;3564;53.326;10.356;2022-08-14T05:13:18;3.23;;;2.93;;
7045;SDS011;3564;53.326;10.356;2022-08-14T05:15:45;3.40;;;3.10;;
7045;SDS011;3564;53.326;10.356;2022-08-14T05:18:16;6.43;;;3.07;;
7045;SDS011;3564;53.326;10.356;2022-08-14T05:20:47;4.20;;;3.30;;
7045;SDS011;3564;53.326;10.356;2022-08-14T05:23:18;4.87;;;3.13;;
7045;SDS011;3564;53.326;10.356;2022-08-14T05:25:50;4.63;;;3.30;;
7045;SDS011;3564;53.326;10.356;2022-08-14T05:28:20;5.27;;;3.20;;
7045;SDS011;3564;53.326;10.356;2022-08-14T05:30:51;5.37;;;3.13;;
7045;SDS011;3564;53.326;10.356;2022-08-14T05:33:28;3.40;;;3.10;;
7045;SDS011;3564;53.326;10.356;2022-08-14T05:35:57;4.87;;;3.13;;
7045;SDS011;3564;53.326;10.356;2022-08-14T05:38:29;4.73;;;3.20;;
7045;SDS011;3564;53.326;10.356;2022-08-14T05:41:00;4.87;;;3.23;;
7045;SDS011;3564;53.326;10.356;2022-08-14T05:43:27;5.43;;;3.27;;
7045;SDS011;3564;53.326;10.356;2022-08-14T05:45:55;4.10;;;3.17;;
7045;SDS011;3564;53.326;10.356;2022-08-14T05:48:21;3.13;;;2.77;;
7045;SDS011;3564;53.326;10.356;2022-08-14T05:50:51;5.30;;;3.07;;
7045;SDS011;3564;53.326;10.356;2022-08-14T05:53:19;4.57;;;3.20;;
7045;SDS011;3564;53.326;10.356;2022-08-14T05:55:49;7.67;;;3.27;;
7045;SDS011;3564;53.326;10.356;2022-08-14T05:58:17;2.93;;;2.63;;
7045;SDS011;3564;53.326;10.356;2022-08-14T06:00:44;4.53;;;2.80;;
7045;SDS011;3564;53.326;10.356;2022-08-14T06:03:12;4.33;;;2.97;;
7045;SDS011;3564;53.326;10.356;2022-08-14T06:05:40;3.10;;;2.80;;
7045;SDS011;3564;53.326;10.356;2022-08-14T06:10:45;4.90;;;3.23;;
7045;SDS011;3564;53.326;10.356;2022-08-14T06:13:11;4.60;;;3.20;;
7045;SDS011;3564;53.326;10.356;2022-08-14T06:15:37;6.23;;;2.90;;
7045;SDS011;3564;53.326;10.356;2022-08-14T06:18:02;3.53;;;2.93;;
7045;SDS011;3564;53.326;10.356;2022-08-14T06:20:28;3.33;;;3.00;;
7045;SDS011;3564;53.326;10.356;2022-08-14T06:22:55;3.73;;;3.03;;
7045;SDS011;3564;53.326;10.356;2022-08-14T06:25:21;5.97;;;3.00;;
7045;SDS011;3564;53.326;10.356;2022-08-14T06:27:47;4.57;;;3.30;;
7045;SDS011;3564;53.326;10.356;2022-08-14T06:30:17;6.37;;;3.23;;
7045;SDS011;3564;53.326;10.356;2022-08-14T06:32:44;4.53;;;3.00;;
7045;SDS011;3564;53.326;10.356;2022-08-14T06:35:11;6.43;;;3.23;;
7045;SDS011;3564;53.326;10.356;2022-08-14T06:37:47;5.13;;;3.20;;
7045;SDS011;3564;53.326;10.356;2022-08-14T06:40:25;4.40;;;3.00;;
7045;SDS011;3564;53.326;10.356;2022-08-14T06:42:51;6.87;;;3.53;;
7045;SDS011;3564;53.326;10.356;2022-08-14T06:45:17;3.70;;;2.77;;
7045;SDS011;3564;53.326;10.356;2022-08-14T06:47:44;3.13;;;2.90;;
7045;SDS011;3564;53.326;10.356;2022-08-14T06:50:12;5.83;;;3.00;;
7045;SDS011;3564;53.326;10.356;2022-08-14T06:52:41;4.87;;;2.83;;
7045;SDS011;3564;53.326;10.356;2022-08-14T06:55:08;3.60;;;3.00;;
7045;SDS011;3564;53.326;10.356;2022-08-14T06:57:40;3.47;;;3.17;;
7045;SDS011;3564;53.326;10.356;2022-08-14T07:00:12;3.90;;;3.50;;
7045;SDS011;3564;53.326;10.356;2022-08-14T07:02:39;3.33;;;3.03;;
7045;SDS011;3564;53.326;10.356;2022-08-14T07:05:23;3.80;;;3.13;;
7045;SDS011;3564;53.326;10.356;2022-08-14T07:10:48;3.80;;;3.23;;
7045;SDS011;3564;53.326;10.356;2022-08-14T07:13:15;4.97;;;3.07;;
7045;SDS011;3564;53.326;10.356;2022-08-14T07:15:43;7.57;;;3.13;;
7045;SDS011;3564;53.326;10.356;2022-08-14T07:18:11;3.17;;;2.90;;
7045;SDS011;3564;53.326;10.356;2022-08-14T07:20:38;4.07;;;3.23;;
7045;SDS011;3564;53.326;10.356;2022-08-14T07:23:06;6.57;;;3.20;;
7045;SDS011;3564;53.326;10.356;2022-08-14T07:25:33;3.20;;;2.90;;
7045;SDS011;3564;53.326;10.356;2022-08-14T07:28:00;4.53;;;3.00;;
7045;SDS011;3564;53.326;10.356;2022-08-14T07:30:32;4.20;;;3.13;;
7045;SDS011;3564;53.326;10.356;2022-08-14T07:32:59;7.53;;;3.53;;
7045;SDS011;3564;53.326;10.356;2022-08-14T07:35:24;3.70;;;2.80;;
7045;SDS011;3564;53.326;10.356;2022-08-14T07:37:50;3.77;;;3.20;;
7045;SDS011;3564;53.326;10.356;2022-08-14T07:40:16;7.30;;;3.20;;
7045;SDS011;3564;53.326;10.356;2022-08-14T07:42:42;3.93;;;3.03;;
7045;SDS011;3564;53.326;10.356;2022-08-14T07:45:08;3.63;;;3.33;;
7045;SDS011;3564;53.326;10.356;2022-08-14T07:47:37;4.77;;;2.97;;
7045;SDS011;3564;53.326;10.356;2022-08-14T07:50:15;3.83;;;3.23;;
7045;SDS011;3564;53.326;10.356;2022-08-14T07:52:44;4.13;;;3.33;;
7045;SDS011;3564;53.326;10.356;2022-08-14T07:55:13;4.03;;;2.80;;
7045;SDS011;3564;53.326;10.356;2022-08-14T07:57:42;5.90;;;3.20;;
7045;SDS011;3564;53.326;10.356;2022-08-14T08:00:11;4.33;;;3.10;;
7045;SDS011;3564;53.326;10.356;2022-08-14T08:02:40;5.47;;;3.67;;
7045;SDS011;3564;53.326;10.356;2022-08-14T08:05:09;5.22;;;3.85;;
7045;SDS011;3564;53.326;10.356;2022-08-14T08:07:36;4.30;;;3.10;;
7045;SDS011;3564;53.326;10.356;2022-08-14T08:10:05;5.13;;;3.10;;
7045;SDS011;3564;53.326;10.356;2022-08-14T08:12:56;3.47;;;3.17;;
7045;SDS011;3564;53.326;10.356;2022-08-14T08:15:28;4.30;;;3.60;;
7045;SDS011;3564;53.326;10.356;2022-08-14T08:17:59;5.47;;;3.22;;
7045;SDS011;3564;53.326;10.356;2022-08-14T08:20:29;5.65;;;3.25;;
7045;SDS011;3564;53.326;10.356;2022-08-14T08:22:57;4.10;;;3.27;;
7045;SDS011;3564;53.326;10.356;2022-08-14T08:25:25;3.80;;;3.40;;
7045;SDS011;3564;53.326;10.356;2022-08-14T08:28:14;6.07;;;3.37;;
7045;SDS011;3564;53.326;10.356;2022-08-14T08:30:45;4.68;;;3.17;;
7045;SDS011;3564;53.326;10.356;2022-08-14T08:33:13;4.77;;;3.40;;
7045;SDS011;3564;53.326;10.356;2022-08-14T08:35:41;3.53;;;3.20;;
7045;SDS011;3564;53.326;10.356;2022-08-14T08:38:08;4.95;;;3.30;;
7045;SDS011;3564;53.326;10.356;2022-08-14T08:40:37;3.45;;;3.10;;
7045;SDS011;3564;53.326;10.356;2022-08-14T08:43:15;3.55;;;3.25;;
7045;SDS011;3564;53.326;10.356;2022-08-14T08:45:52;5.85;;;3.45;;
7045;SDS011;3564;53.326;10.356;2022-08-14T08:48:19;4.85;;;3.40;;
7045;SDS011;3564;53.326;10.356;2022-08-14T08:50:45;3.80;;;3.30;;
7045;SDS011;3564;53.326;10.356;2022-08-14T08:53:10;4.03;;;3.40;;
7045;SDS011;3564;53.326;10.356;2022-08-14T08:55:37;4.85;;;3.70;;
7045;SDS011;3564;53.326;10.356;2022-08-14T08:58:08;3.67;;;3.38;;
7045;SDS011;3564;53.326;10.356;2022-08-14T09:00:37;4.20;;;3.60;;
7045;SDS011;3564;53.326;10.356;2022-08-14T09:05:38;4.15;;;3.75;;
7045;SDS011;3564;53.326;10.356;2022-08-14T09:08:32;4.75;;;3.30;;
7045;SDS011;3564;53.326;10.356;2022-08-14T09:11:03;6.57;;;3.60;;
7045;SDS011;3564;53.326;10.356;2022-08-14T09:13:31;4.43;;;3.88;;
7045;SDS011;3564;53.326;10.356;2022-08-14T09:15:57;5.70;;;4.32;;
7045;SDS011;3564;53.326;10.356;2022-08-14T09:18:25;4.32;;;3.92;;
7045;SDS011;3564;53.326;10.356;2022-08-14T09:20:52;4.63;;;3.78;;
7045;SDS011;3564;53.326;10.356;2022-08-14T09:23:19;4.07;;;3.65;;
7045;SDS011;3564;53.326;10.356;2022-08-14T09:25:46;5.43;;;4.18;;
7045;SDS011;3564;53.326;10.356;2022-08-14T09:28:14;4.18;;;3.40;;
7045;SDS011;3564;53.326;10.356;2022-08-14T09:30:42;4.35;;;4.00;;
7045;SDS011;3564;53.326;10.356;2022-08-14T09:38:37;5.90;;;4.28;;
7045;SDS011;3564;53.326;10.356;2022-08-14T09:41:12;4.57;;;3.97;;
7045;SDS011;3564;53.326;10.356;2022-08-14T09:44:03;4.00;;;3.65;;
7045;SDS011;3564;53.326;10.356;2022-08-14T09:46:32;5.47;;;4.00;;
7045;SDS011;3564;53.326;10.356;2022-08-14T09:49:03;5.72;;;4.00;;
7045;SDS011;3564;53.326;10.356;2022-08-14T09:51:31;4.53;;;4.13;;
7045;SDS011;3564;53.326;10.356;2022-08-14T09:54:01;5.63;;;3.88;;
7045;SDS011;3564;53.326;10.356;2022-08-14T09:56:43;5.47;;;3.75;;
7045;SDS011;3564;53.326;10.356;2022-08-14T09:59:10;6.03;;;4.25;;
7045;SDS011;3564;53.326;10.356;2022-08-14T10:01:38;5.43;;;4.38;;
7045;SDS011;3564;53.326;10.356;2022-08-14T10:04:05;8.52;;;4.10;;
7045;SDS011;3564;53.326;10.356;2022-08-14T10:06:44;4.63;;;4.22;;
7045;SDS011;3564;53.326;10.356;2022-08-14T10:09:11;4.20;;;3.80;;
7045;SDS011;3564;53.326;10.356;2022-08-14T10:11:37;5.22;;;4.20;;
7045;SDS011;3564;53.326;10.356;2022-08-14T10:14:14;5.45;;;4.30;;
7045;SDS011;3564;53.326;10.356;2022-08-14T10:16:45;4.63;;;4.22;;
7045;SDS011;3564;53.326;10.356;2022-08-14T10:19:15;6.00;;;4.55;;
7045;SDS011;3564;53.326;10.356;2022-08-14T10:22:04;4.80;;;4.35;;
7045;SDS011;3564;53.326;10.356;2022-08-14T10:24:40;8.07;;;4.88;;
7045;SDS011;3564;53.326;10.356;2022-08-14T10:27:15;5.15;;;4.22;;
7045;SDS011;3564;53.326;10.356;2022-08-14T10:29:42;5.47;;;4.72;;
7045;SDS011;3564;53.326;10.356;2022-08-14T10:32:12;4.57;;;4.18;;
7045;SDS011;3564;53.326;10.356;2022-08-14T10:34:38;8.75;;;5.00;;
7045;SDS011;3564;53.326;10.356;2022-08-14T10:37:06;7.10;;;4.60;;
7045;SDS011;3564;53.326;10.356;2022-08-14T10:39:36;4.95;;;4.50;;
7045;SDS011;3564;53.326;10.356;2022-08-14T10:42:05;5.15;;;4.65;;
7045;SDS011;3564;53.326;10.356;2022-08-14T10:44:39;5.13;;;4.72;;
7045;SDS011;3564;53.326;10.356;2022-08-14T10:47:09;5.13;;;4.47;;
7045;SDS011;3564;53.326;10.356;2022-08-14T10:49:36;5.18;;;4.70;;
7045;SDS011;3564;53.326;10.356;2022-08-14T10:52:21;6.38;;;4.57;;
7045;SDS011;3564;53.326;10.356;2022-08-14T10:54:49;5.80;;;4.80;;
7045;SDS011;3564;53.326;10.356;2022-08-14T11:04:56;7.47;;;4.63;;
7045;SDS011;3564;53.326;10.356;2022-08-14T11:07:28;8.20;;;4.80;;
7045;SDS011;3564;53.326;10.356;2022-08-14T11:09:59;7.90;;;4.30;;
7045;SDS011;3564;53.326;10.356;2022-08-14T11:12:37;6.75;;;4.82;;
7045;SDS011;3564;53.326;10.356;2022-08-14T11:15:10;4.88;;;4.47;;
7045;SDS011;3564;53.326;10.356;2022-08-14T11:17:38;5.15;;;4.65;;
7045;SDS011;3564;53.326;10.356;2022-08-14T11:20:05;5.65;;;4.82;;
7045;SDS011;3564;53.326;10.356;2022-08-14T11:22:32;5.30;;;4.80;;
7045;SDS011;3564;53.326;10.356;2022-08-14T11:25:01;5.05;;;4.57;;
7045;SDS011;3564;53.326;10.356;2022-08-14T11:27:30;7.50;;;5.38;;
7045;SDS011;3564;53.326;10.356;2022-08-14T11:29:59;5.57;;;4.72;;
7045;SDS011;3564;53.326;10.356;2022-08-14T11:32:27;5.38;;;4.88;;
7045;SDS011;3564;53.326;10.356;2022-08-14T11:34:56;8.25;;;5.53;;
7045;SDS011;3564;53.326;10.356;2022-08-14T11:37:22;6.38;;;5.20;;
7045;SDS011;3564;53.326;10.356;2022-08-14T11:39:48;5.88;;;5.15;;
7045;SDS011;3564;53.326;10.356;2022-08-14T11:42:21;5.93;;;5.32;;
7045;SDS011;3564;53.326;10.356;2022-08-14T11:44:51;5.63;;;4.88;;
7045;SDS011;3564;53.326;10.356;2022-08-14T11:47:20;5.68;;;5.13;;
7045;SDS011;3564;53.326;10.356;2022-08-14T11:49:46;7.47;;;5.25;;
7045;SDS011;3564;53.326;10.356;2022-08-14T11:52:13;5.38;;;4.88;;
7045;SDS011;3564;53.326;10.356;2022-08-14T11:54:40;5.55;;;4.85;;
7045;SDS011;3564;53.326;10.356;2022-08-14T11:57:13;5.40;;;4.88;;
7045;SDS011;3564;53.326;10.356;2022-08-14T11:59:39;5.82;;;5.32;;
7045;SDS011;3564;53.326;10.356;2022-08-14T12:04:49;5.40;;;4.90;;
7045;SDS011;3564;53.326;10.356;2022-08-14T12:07:15;7.47;;;5.10;;
7045;SDS011;3564;53.326;10.356;2022-08-14T12:09:42;5.80;;;5.05;;
7045;SDS011;3564;53.326;10.356;2022-08-14T12:12:19;7.13;;;5.45;;
7045;SDS011;3564;53.326;10.356;2022-08-14T12:17:23;5.93;;;5.30;;
7045;SDS011;3564;53.326;10.356;2022-08-14T12:19:55;6.65;;;5.05;;
7045;SDS011;3564;53.326;10.356;2022-08-14T12:22:38;6.45;;;4.85;;
7045;SDS011;3564;53.326;10.356;2022-08-14T12:25:28;7.05;;;5.43;;
7045;SDS011;3564;53.326;10.356;2022-08-14T12:27:54;5.95;;;5.38;;
7045;SDS011;3564;53.326;10.356;2022-08-14T12:30:25;5.97;;;5.38;;
7045;SDS011;3564;53.326;10.356;2022-08-14T12:32:59;6.68;;;5.55;;
7045;SDS011;3564;53.326;10.356;2022-08-14T12:35:36;6.65;;;5.20;;
7045;SDS011;3564;53.326;10.356;2022-08-14T12:38:03;5.13;;;4.63;;
7045;SDS011;3564;53.326;10.356;2022-08-14T12:40:29;6.60;;;5.78;;
7045;SDS011;3564;53.326;10.356;2022-08-14T12:43:02;5.40;;;5.00;;
7045;SDS011;3564;53.326;10.356;2022-08-14T12:45:29;6.45;;;5.47;;
7045;SDS011;3564;53.326;10.356;2022-08-14T12:47:58;5.88;;;5.38;;
7045;SDS011;3564;53.326;10.356;2022-08-14T12:50:38;5.25;;;4.85;;
7045;SDS011;3564;53.326;10.356;2022-08-14T12:53:05;6.05;;;5.43;;
7045;SDS011;3564;53.326;10.356;2022-08-14T12:55:33;6.45;;;5.35;;
7045;SDS011;3564;53.326;10.356;2022-08-14T12:58:00;6.40;;;5.57;;
7045;SDS011;3564;53.326;10.356;2022-08-14T13:00:30;6.47;;;5.88;;
7045;SDS011;3564;53.326;10.356;2022-08-14T13:02:58;6.20;;;5.70;;
7045;SDS011;3564;53.326;10.356;2022-08-14T13:05:28;8.15;;;6.28;;
7045;SDS011;3564;53.326;10.356;2022-08-14T13:07:55;6.40;;;5.90;;
7045;SDS011;3564;53.326;10.356;2022-08-14T13:10:23;5.82;;;5.30;;
7045;SDS011;3564;53.326;10.356;2022-08-14T13:12:50;5.60;;;5.13;;
7045;SDS011;3564;53.326;10.356;2022-08-14T13:15:19;6.55;;;5.85;;
7045;SDS011;3564;53.326;10.356;2022-08-14T13:17:46;6.80;;;6.05;;
7045;SDS011;3564;53.326;10.356;2022-08-14T13:20:20;6.45;;;5.85;;
7045;SDS011;3564;53.326;10.356;2022-08-14T13:22:48;6.28;;;5.60;;
7045;SDS011;3564;53.326;10.356;2022-08-14T13:25:21;6.80;;;6.10;;
7045;SDS011;3564;53.326;10.356;2022-08-14T13:27:49;6.10;;;5.60;;
7045;SDS011;3564;53.326;10.356;2022-08-14T13:30:18;6.13;;;5.53;;
7045;SDS011;3564;53.326;10.356;2022-08-14T13:32:45;6.43;;;5.82;;
7045;SDS011;3564;53.326;10.356;2022-08-14T13:35:12;5.93;;;5.43;;
7045;SDS011;3564;53.326;10.356;2022-08-14T13:37:40;7.57;;;5.70;;
7045;SDS011;3564;53.326;10.356;2022-08-14T13:40:09;6.47;;;5.88;;
7045;SDS011;3564;53.326;10.356;2022-08-14T13:42:38;5.45;;;5.05;;
7045;SDS011;3564;53.326;10.356;2022-08-14T13:45:06;7.20;;;6.50;;
7045;SDS011;3564;53.326;10.356;2022-08-14T13:47:32;7.72;;;6.28;;
7045;SDS011;3564;53.326;10.356;2022-08-14T13:50:00;6.38;;;5.88;;
7045;SDS011;3564;53.326;10.356;2022-08-14T13:52:50;6.70;;;5.82;;
7045;SDS011;3564;53.326;10.356;2022-08-14T13:55:18;6.07;;;5.57;;
7045;SDS011;3564;53.326;10.356;2022-08-14T13:58:03;6.13;;;5.63;;
7045;SDS011;3564;53.326;10.356;2022-08-14T14:00:31;7.18;;;5.55;;
7045;SDS011;3564;53.326;10.356;2022-08-14T14:03:00;6.45;;;5.55;;
7045;SDS011;3564;53.326;10.356;2022-08-14T14:05:29;6.43;;;5.82;;
7045;SDS011;3564;53.326;10.356;2022-08-14T14:07:56;6.38;;;5.80;;
7045;SDS011;3564;53.326;10.356;2022-08-14T14:10:24;7.80;;;5.78;;
7045;SDS011;3564;53.326;10.356;2022-08-14T14:12:51;7.95;;;6.28;;
7045;SDS011;3564;53.326;10.356;2022-08-14T14:15:18;6.13;;;5.63;;
7045;SDS011;3564;53.326;10.356;2022-08-14T14:17:44;6.70;;;5.97;;
7045;SDS011;3564;53.326;10.356;2022-08-14T14:20:15;5.78;;;5.28;;
7045;SDS011;3564;53.326;10.356;2022-08-14T14:22:43;8.07;;;5.78;;
7045;SDS011;3564;53.326;10.356;2022-08-14T14:25:12;6.50;;;5.90;;
7045;SDS011;3564;53.326;10.356;2022-08-14T14:27:41;7.35;;;6.65;;
7045;SDS011;3564;53.326;10.356;2022-08-14T14:30:13;7.03;;;6.40;;
7045;SDS011;3564;53.326;10.356;2022-08-14T14:32:41;6.35;;;5.85;;
7045;SDS011;3564;53.326;10.356;2022-08-14T14:35:13;7.05;;;6.35;;
7045;SDS011;3564;53.326;10.356;2022-08-14T14:37:43;6.70;;;6.13;;
7045;SDS011;3564;53.326;10.356;2022-08-14T14:40:11;8.80;;;5.88;;
7045;SDS011;3564;53.326;10.356;2022-08-14T14:42:46;6.53;;;5.93;;
7045;SDS011;3564;53.326;10.356;2022-08-14T14:45:15;6.90;;;6.20;;
7045;SDS011;3564;53.326;10.356;2022-08-14T14:47:50;6.75;;;6.13;;
7045;SDS011;3564;53.326;10.356;2022-08-14T14:50:19;7.10;;;6.40;;
7045;SDS011;3564;53.326;10.356;2022-08-14T14:52:47;6.22;;;5.53;;
7045;SDS011;3564;53.326;10.356;2022-08-14T14:55:15;6.68;;;6.07;;
7045;SDS011;3564;53.326;10.356;2022-08-14T14:57:42;6.90;;;5.80;;
7045;SDS011;3564;53.326;10.356;2022-08-14T15:00:10;6.88;;;6.13;;
7045;SDS011;3564;53.326;10.356;2022-08-14T15:02:41;5.80;;;5.30;;
7045;SDS011;3564;53.326;10.356;2022-08-14T15:05:11;6.32;;;5.82;;
7045;SDS011;3564;53.326;10.356;2022-08-14T15:07:40;6.47;;;5.88;;
7045;SDS011;3564;53.326;10.356;2022-08-14T15:10:08;10.82;;;6.03;;
7045;SDS011;3564;53.326;10.356;2022-08-14T15:12:34;6.63;;;6.03;;
7045;SDS011;3564;53.326;10.356;2022-08-14T15:15:00;7.15;;;6.55;;
7045;SDS011;3564;53.326;10.356;2022-08-14T15:17:26;7.07;;;6.45;;
7045;SDS011;3564;53.326;10.356;2022-08-14T15:19:57;6.95;;;6.18;;
7045;SDS011;3564;53.326;10.356;2022-08-14T15:22:23;7.10;;;5.50;;
7045;SDS011;3564;53.326;10.356;2022-08-14T15:24:48;6.68;;;6.07;;
7045;SDS011;3564;53.326;10.356;2022-08-14T15:27:15;6.45;;;5.85;;
7045;SDS011;3564;53.326;10.356;2022-08-14T15:29:40;6.97;;;5.97;;
7045;SDS011;3564;53.326;10.356;2022-08-14T15:32:07;6.63;;;6.03;;
7045;SDS011;3564;53.326;10.356;2022-08-14T15:34:35;7.25;;;5.32;;
7045;SDS011;3564;53.326;10.356;2022-08-14T15:37:02;6.85;;;6.15;;
7045;SDS011;3564;53.326;10.356;2022-08-14T15:39:31;6.75;;;6.13;;